sensor_id;sensor_type;location;lat;lon;timestamp;temperature;humidity
77865;DHT22;67061;48.524;9.040;2024-02-15T00:02:11;7.40;99.90
77865;DHT22;67061;48.524;9.040;2024-02-15T00:04:38;7.40;99.90
77865;DHT22;67061;48.524;9.040;2024-02-15T00:07:05;7.20;99.90
77865;DHT22;67061;48.524;9.040;2024-02-15T00:09:32;7.20;99.90
77865;DHT22;67061;48.524;9.040;2024-02-15T00:11:59;7.20;99.90
77865;DHT22;67061;48.524;9.040;2024-02-15T00:14:26;7.20;99.90
77865;DHT22;67061;48.524;9.040;2024-02-15T00:16:53;7.20;99.90
77865;DHT22;67061;48.524;9.040;2024-02-15T00:19:21;7.20;99.90
77865;DHT22;67061;48.524;9.040;2024-02-15T00:21:48;7.20;99.90
77865;DHT22;67061;48.524;9.040;2024-02-15T00:24:15;7.20;99.90
77865;DHT22;67061;48.524;9.040;2024-02-15T00:26:42;7.20;99.90
77865;DHT22;67061;48.524;9.040;2024-02-15T00:29:09;7.20;99.90
77865;DHT22;67061;48.524;9.040;2024-02-15T00:31:36;7.20;99.90
77865;DHT22;67061;48.524;9.040;2024-02-15T00:34:04;7.20;99.90
77865;DHT22;67061;48.524;9.040;2024-02-15T00:36:32;7.20;99.90
77865;DHT22;67061;48.524;9.040;2024-02-15T00:39:00;7.20;99.90
77865;DHT22;67061;48.524;9.040;2024-02-15T00:41:27;7.20;99.90
77865;DHT22;67061;48.524;9.040;2024-02-15T00:43:54;7.20;99.90
77865;DHT22;67061;48.524;9.040;2024-02-15T00:46:20;7.20;99.90
77865;DHT22;67061;48.524;9.040;2024-02-15T00:48:48;7.10;99.90
77865;DHT22;67061;48.524;9.040;2024-02-15T00:51:15;7.10;99.90
77865;DHT22;67061;48.524;9.040;2024-02-15T00:53:43;7.10;99.90
77865;DHT22;67061;48.524;9.040;2024-02-15T00:56:11;7.00;99.90
77865;DHT22;67061;48.524;9.040;2024-02-15T00:58:38;7.00;99.90
77865;DHT22;67061;48.524;9.040;2024-02-15T01:01:05;7.00;99.90
77865;DHT22;67061;48.524;9.040;2024-02-15T01:03:32;7.00;99.90
77865;DHT22;67061;48.524;9.040;2024-02-15T01:06:01;7.00;99.90
77865;DHT22;67061;48.524;9.040;2024-02-15T01:08:28;6.90;99.90
77865;DHT22;67061;48.524;9.040;2024-02-15T01:10:56;6.90;99.90
77865;DHT22;67061;48.524;9.040;2024-02-15T01:13:23;6.80;99.90
77865;DHT22;67061;48.524;9.040;2024-02-15T01:15:51;6.80;99.90
77865;DHT22;67061;48.524;9.040;2024-02-15T01:18:17;6.70;99.90
77865;DHT22;67061;48.524;9.040;2024-02-15T01:20:45;6.60;99.90
77865;DHT22;67061;48.524;9.040;2024-02-15T01:23:12;6.50;99.90
77865;DHT22;67061;48.524;9.040;2024-02-15T01:25:39;6.50;99.90
77865;DHT22;67061;48.524;9.040;2024-02-15T01:28:08;6.40;99.90
77865;DHT22;67061;48.524;9.040;2024-02-15T01:30:34;6.40;99.90
77865;DHT22;67061;48.524;9.040;2024-02-15T01:33:01;6.20;99.90
77865;DHT22;67061;48.524;9.040;2024-02-15T01:35:28;6.20;99.90
77865;DHT22;67061;48.524;9.040;2024-02-15T01:37:55;6.10;99.90
77865;DHT22;67061;48.524;9.040;2024-02-15T01:40:22;6.00;99.90
77865;DHT22;67061;48.524;9.040;2024-02-15T01:42:49;6.00;99.90
77865;DHT22;67061;48.524;9.040;2024-02-15T01:45:17;5.90;99.90
77865;DHT22;67061;48.524;9.040;2024-02-15T01:47:45;5.80;99.90
77865;DHT22;67061;48.524;9.040;2024-02-15T01:50:12;5.80;99.90
77865;DHT22;67061;48.524;9.040;2024-02-15T01:52:41;5.70;99.90
77865;DHT22;67061;48.524;9.040;2024-02-15T01:55:09;5.60;99.90
77865;DHT22;67061;48.524;9.040;2024-02-15T01:57:36;5.50;99.90
77865;DHT22;67061;48.524;9.040;2024-02-15T02:00:05;5.50;99.90
77865;DHT22;67061;48.524;9.040;2024-02-15T02:02:38;5.50;99.90
77865;DHT22;67061;48.524;9.040;2024-02-15T02:05:06;5.30;99.90
77865;DHT22;67061;48.524;9.040;2024-02-15T02:07:33;5.30;99.90
77865;DHT22;67061;48.524;9.040;2024-02-15T02:10:01;5.30;99.90
77865;DHT22;67061;48.524;9.040;2024-02-15T02:12:28;5.10;99.90
77865;DHT22;67061;48.524;9.040;2024-02-15T02:14:56;5.10;99.90
77865;DHT22;67061;48.524;9.040;2024-02-15T02:17:23;5.00;99.90
77865;DHT22;67061;48.524;9.040;2024-02-15T02:19:51;5.00;99.90
77865;DHT22;67061;48.524;9.040;2024-02-15T02:22:19;5.00;99.90
77865;DHT22;67061;48.524;9.040;2024-02-15T02:25:00;5.00;99.90
77865;DHT22;67061;48.524;9.040;2024-02-15T02:27:29;4.90;99.90
77865;DHT22;67061;48.524;9.040;2024-02-15T02:29:57;4.70;99.90
77865;DHT22;67061;48.524;9.040;2024-02-15T02:32:25;4.70;99.90
77865;DHT22;67061;48.524;9.040;2024-02-15T02:34:52;4.50;99.90
77865;DHT22;67061;48.524;9.040;2024-02-15T02:37:22;4.50;99.90
77865;DHT22;67061;48.524;9.040;2024-02-15T02:39:49;4.40;99.90
77865;DHT22;67061;48.524;9.040;2024-02-15T02:42:18;4.30;99.90
77865;DHT22;67061;48.524;9.040;2024-02-15T02:44:46;4.20;99.90
77865;DHT22;67061;48.524;9.040;2024-02-15T02:47:13;4.20;99.90
77865;DHT22;67061;48.524;9.040;2024-02-15T02:49:40;4.20;99.90
77865;DHT22;67061;48.524;9.040;2024-02-15T02:52:07;4.10;99.90
77865;DHT22;67061;48.524;9.040;2024-02-15T02:54:34;4.10;99.90
77865;DHT22;67061;48.524;9.040;2024-02-15T02:57:01;4.10;99.90
77865;DHT22;67061;48.524;9.040;2024-02-15T02:59:34;4.00;99.90
77865;DHT22;67061;48.524;9.040;2024-02-15T03:02:04;4.00;99.90
77865;DHT22;67061;48.524;9.040;2024-02-15T03:04:32;3.90;99.90
77865;DHT22;67061;48.524;9.040;2024-02-15T03:06:59;3.90;99.90
77865;DHT22;67061;48.524;9.040;2024-02-15T03:09:26;3.90;99.90
77865;DHT22;67061;48.524;9.040;2024-02-15T03:11:55;3.90;99.90
77865;DHT22;67061;48.524;9.040;2024-02-15T03:14:23;3.80;99.90
77865;DHT22;67061;48.524;9.040;2024-02-15T03:16:52;3.80;99.90
77865;DHT22;67061;48.524;9.040;2024-02-15T03:19:21;3.70;99.90
77865;DHT22;67061;48.524;9.040;2024-02-15T03:21:48;3.60;99.90
77865;DHT22;67061;48.524;9.040;2024-02-15T03:24:15;3.50;99.90
77865;DHT22;67061;48.524;9.040;2024-02-15T03:26:42;3.50;99.90
77865;DHT22;67061;48.524;9.040;2024-02-15T03:29:09;3.50;99.90
77865;DHT22;67061;48.524;9.040;2024-02-15T03:31:37;3.50;99.90
77865;DHT22;67061;48.524;9.040;2024-02-15T03:34:05;3.50;99.90
77865;DHT22;67061;48.524;9.040;2024-02-15T03:36:32;3.40;99.90
77865;DHT22;67061;48.524;9.040;2024-02-15T03:39:00;3.40;99.90
77865;DHT22;67061;48.524;9.040;2024-02-15T03:41:27;3.30;99.90
77865;DHT22;67061;48.524;9.040;2024-02-15T03:43:58;3.30;99.90
77865;DHT22;67061;48.524;9.040;2024-02-15T03:46:25;3.20;99.90
77865;DHT22;67061;48.524;9.040;2024-02-15T03:48:53;3.10;99.90
77865;DHT22;67061;48.524;9.040;2024-02-15T03:51:22;3.10;99.90
77865;DHT22;67061;48.524;9.040;2024-02-15T03:53:50;3.10;99.90
77865;DHT22;67061;48.524;9.040;2024-02-15T03:56:18;3.10;99.90
77865;DHT22;67061;48.524;9.040;2024-02-15T03:58:46;3.10;99.90
77865;DHT22;67061;48.524;9.040;2024-02-15T04:01:13;3.10;99.90
77865;DHT22;67061;48.524;9.040;2024-02-15T04:03:41;3.20;99.90
77865;DHT22;67061;48.524;9.040;2024-02-15T04:06:08;3.30;99.90
77865;DHT22;67061;48.524;9.040;2024-02-15T04:08:38;3.30;99.90
77865;DHT22;67061;48.524;9.040;2024-02-15T04:11:05;3.30;99.90
77865;DHT22;67061;48.524;9.040;2024-02-15T04:13:33;3.30;99.90
77865;DHT22;67061;48.524;9.040;2024-02-15T04:16:00;3.30;99.90
77865;DHT22;67061;48.524;9.040;2024-02-15T04:18:28;3.30;99.90
77865;DHT22;67061;48.524;9.040;2024-02-15T04:20:58;3.30;99.90
77865;DHT22;67061;48.524;9.040;2024-02-15T04:23:24;3.40;99.90
77865;DHT22;67061;48.524;9.040;2024-02-15T04:25:53;3.40;99.90
77865;DHT22;67061;48.524;9.040;2024-02-15T04:28:20;3.30;99.90
77865;DHT22;67061;48.524;9.040;2024-02-15T04:30:47;3.40;99.90
77865;DHT22;67061;48.524;9.040;2024-02-15T04:33:14;3.30;99.90
77865;DHT22;67061;48.524;9.040;2024-02-15T04:35:42;3.30;99.90
77865;DHT22;67061;48.524;9.040;2024-02-15T04:38:09;3.30;99.90
77865;DHT22;67061;48.524;9.040;2024-02-15T04:40:36;3.30;99.90
77865;DHT22;67061;48.524;9.040;2024-02-15T04:43:06;3.30;99.90
77865;DHT22;67061;48.524;9.040;2024-02-15T04:45:34;3.30;99.90
77865;DHT22;67061;48.524;9.040;2024-02-15T04:48:02;3.30;99.90
77865;DHT22;67061;48.524;9.040;2024-02-15T04:50:29;3.30;99.90
77865;DHT22;67061;48.524;9.040;2024-02-15T04:52:56;3.30;99.90
77865;DHT22;67061;48.524;9.040;2024-02-15T04:55:23;3.30;99.90
77865;DHT22;67061;48.524;9.040;2024-02-15T04:57:51;3.30;99.90
77865;DHT22;67061;48.524;9.040;2024-02-15T05:00:23;3.40;99.90
77865;DHT22;67061;48.524;9.040;2024-02-15T05:02:51;3.30;99.90
77865;DHT22;67061;48.524;9.040;2024-02-15T05:05:19;3.30;99.90
77865;DHT22;67061;48.524;9.040;2024-02-15T05:07:47;3.30;99.90
77865;DHT22;67061;48.524;9.040;2024-02-15T05:10:16;3.30;99.90
77865;DHT22;67061;48.524;9.040;2024-02-15T05:12:43;3.30;99.90
77865;DHT22;67061;48.524;9.040;2024-02-15T05:15:10;3.30;99.90
77865;DHT22;67061;48.524;9.040;2024-02-15T05:17:39;3.20;99.90
77865;DHT22;67061;48.524;9.040;2024-02-15T05:20:08;3.20;99.90
77865;DHT22;67061;48.524;9.040;2024-02-15T05:22:38;3.10;99.90
77865;DHT22;67061;48.524;9.040;2024-02-15T05:25:06;3.10;99.90
77865;DHT22;67061;48.524;9.040;2024-02-15T05:27:34;3.10;99.90
77865;DHT22;67061;48.524;9.040;2024-02-15T05:30:02;3.10;99.90
77865;DHT22;67061;48.524;9.040;2024-02-15T05:32:33;3.00;99.90
77865;DHT22;67061;48.524;9.040;2024-02-15T05:35:09;3.00;99.90
77865;DHT22;67061;48.524;9.040;2024-02-15T05:37:36;3.00;99.90
77865;DHT22;67061;48.524;9.040;2024-02-15T05:40:05;3.00;99.90
77865;DHT22;67061;48.524;9.040;2024-02-15T05:42:33;3.00;99.90
77865;DHT22;67061;48.524;9.040;2024-02-15T05:45:27;3.10;99.90
77865;DHT22;67061;48.524;9.040;2024-02-15T05:47:58;3.10;99.90
77865;DHT22;67061;48.524;9.040;2024-02-15T05:50:27;3.10;99.90
77865;DHT22;67061;48.524;9.040;2024-02-15T05:52:56;3.10;99.90
77865;DHT22;67061;48.524;9.040;2024-02-15T05:55:24;3.00;99.90
77865;DHT22;67061;48.524;9.040;2024-02-15T05:57:52;3.00;99.90
77865;DHT22;67061;48.524;9.040;2024-02-15T06:00:20;2.90;99.90
77865;DHT22;67061;48.524;9.040;2024-02-15T06:02:47;2.90;99.90
77865;DHT22;67061;48.524;9.040;2024-02-15T06:05:15;2.90;99.90
77865;DHT22;67061;48.524;9.040;2024-02-15T06:07:44;2.80;99.90
77865;DHT22;67061;48.524;9.040;2024-02-15T06:10:11;2.80;99.90
77865;DHT22;67061;48.524;9.040;2024-02-15T06:12:39;2.80;99.90
77865;DHT22;67061;48.524;9.040;2024-02-15T06:15:06;2.80;99.90
77865;DHT22;67061;48.524;9.040;2024-02-15T06:17:40;2.80;99.90
77865;DHT22;67061;48.524;9.040;2024-02-15T06:20:11;2.80;99.90
77865;DHT22;67061;48.524;9.040;2024-02-15T06:22:39;2.70;99.90
77865;DHT22;67061;48.524;9.040;2024-02-15T06:25:08;2.70;99.90
77865;DHT22;67061;48.524;9.040;2024-02-15T06:27:36;2.70;99.90
77865;DHT22;67061;48.524;9.040;2024-02-15T06:30:07;2.70;99.90
77865;DHT22;67061;48.524;9.040;2024-02-15T06:32:51;2.70;99.90
77865;DHT22;67061;48.524;9.040;2024-02-15T06:35:36;2.70;99.90
77865;DHT22;67061;48.524;9.040;2024-02-15T06:38:21;2.70;99.90
77865;DHT22;67061;48.524;9.040;2024-02-15T06:41:06;2.70;99.90
77865;DHT22;67061;48.524;9.040;2024-02-15T06:43:34;2.60;99.90
77865;DHT22;67061;48.524;9.040;2024-02-15T06:46:01;2.60;99.90
77865;DHT22;67061;48.524;9.040;2024-02-15T06:48:28;2.60;99.90
77865;DHT22;67061;48.524;9.040;2024-02-15T06:50:56;2.70;99.90
77865;DHT22;67061;48.524;9.040;2024-02-15T06:53:23;2.70;99.90
77865;DHT22;67061;48.524;9.040;2024-02-15T06:55:51;2.80;99.90
77865;DHT22;67061;48.524;9.040;2024-02-15T06:58:20;2.90;99.90
77865;DHT22;67061;48.524;9.040;2024-02-15T07:00:48;3.00;99.90
77865;DHT22;67061;48.524;9.040;2024-02-15T07:03:15;3.00;99.90
77865;DHT22;67061;48.524;9.040;2024-02-15T07:05:43;3.10;99.90
77865;DHT22;67061;48.524;9.040;2024-02-15T07:08:11;3.10;99.90
77865;DHT22;67061;48.524;9.040;2024-02-15T07:10:39;3.10;99.90
77865;DHT22;67061;48.524;9.040;2024-02-15T07:13:06;3.30;99.90
77865;DHT22;67061;48.524;9.040;2024-02-15T07:15:34;3.30;99.90
77865;DHT22;67061;48.524;9.040;2024-02-15T07:18:04;3.30;99.90
77865;DHT22;67061;48.524;9.040;2024-02-15T07:20:31;3.50;99.90
77865;DHT22;67061;48.524;9.040;2024-02-15T07:22:59;3.50;99.90
77865;DHT22;67061;48.524;9.040;2024-02-15T07:25:25;3.60;99.90
77865;DHT22;67061;48.524;9.040;2024-02-15T07:27:52;3.60;99.90
77865;DHT22;67061;48.524;9.040;2024-02-15T07:30:20;3.70;99.90
77865;DHT22;67061;48.524;9.040;2024-02-15T07:32:49;3.90;99.90
77865;DHT22;67061;48.524;9.040;2024-02-15T07:35:16;3.90;99.90
77865;DHT22;67061;48.524;9.040;2024-02-15T07:37:51;4.00;99.90
77865;DHT22;67061;48.524;9.040;2024-02-15T07:40:19;4.10;99.90
77865;DHT22;67061;48.524;9.040;2024-02-15T07:42:47;4.20;99.90
77865;DHT22;67061;48.524;9.040;2024-02-15T07:45:14;4.30;99.90
77865;DHT22;67061;48.524;9.040;2024-02-15T07:47:43;4.40;99.90
77865;DHT22;67061;48.524;9.040;2024-02-15T07:50:15;4.40;99.90
77865;DHT22;67061;48.524;9.040;2024-02-15T07:52:44;4.50;99.90
77865;DHT22;67061;48.524;9.040;2024-02-15T07:55:12;4.70;99.90
77865;DHT22;67061;48.524;9.040;2024-02-15T07:57:39;4.70;99.90
77865;DHT22;67061;48.524;9.040;2024-02-15T08:00:07;4.90;99.90
77865;DHT22;67061;48.524;9.040;2024-02-15T08:02:37;5.00;99.90
77865;DHT22;67061;48.524;9.040;2024-02-15T08:05:06;5.00;99.90
77865;DHT22;67061;48.524;9.040;2024-02-15T08:07:40;5.10;99.90
77865;DHT22;67061;48.524;9.040;2024-02-15T08:10:08;5.30;99.90
77865;DHT22;67061;48.524;9.040;2024-02-15T08:12:40;5.30;99.90
77865;DHT22;67061;48.524;9.040;2024-02-15T08:15:07;5.50;99.90
77865;DHT22;67061;48.524;9.040;2024-02-15T08:17:39;5.50;99.90
77865;DHT22;67061;48.524;9.040;2024-02-15T08:20:07;5.50;99.90
77865;DHT22;67061;48.524;9.040;2024-02-15T08:22:35;5.60;99.90
77865;DHT22;67061;48.524;9.040;2024-02-15T08:25:08;5.70;99.90
77865;DHT22;67061;48.524;9.040;2024-02-15T08:27:37;5.90;99.90
77865;DHT22;67061;48.524;9.040;2024-02-15T08:30:08;5.90;99.90
77865;DHT22;67061;48.524;9.040;2024-02-15T08:32:36;6.00;99.90
77865;DHT22;67061;48.524;9.040;2024-02-15T08:35:04;6.00;99.90
77865;DHT22;67061;48.524;9.040;2024-02-15T08:37:31;6.00;99.90
77865;DHT22;67061;48.524;9.040;2024-02-15T08:39:59;6.10;99.90
77865;DHT22;67061;48.524;9.040;2024-02-15T08:42:28;6.10;99.90
77865;DHT22;67061;48.524;9.040;2024-02-15T08:44:55;6.20;99.90
77865;DHT22;67061;48.524;9.040;2024-02-15T08:47:22;6.30;99.90
77865;DHT22;67061;48.524;9.040;2024-02-15T08:49:48;6.30;99.90
77865;DHT22;67061;48.524;9.040;2024-02-15T08:52:15;6.40;99.90
77865;DHT22;67061;48.524;9.040;2024-02-15T08:54:44;6.40;99.90
77865;DHT22;67061;48.524;9.040;2024-02-15T08:57:11;6.50;99.90
77865;DHT22;67061;48.524;9.040;2024-02-15T08:59:40;6.60;99.90
77865;DHT22;67061;48.524;9.040;2024-02-15T09:02:08;6.60;99.90
77865;DHT22;67061;48.524;9.040;2024-02-15T09:04:35;6.60;99.90
77865;DHT22;67061;48.524;9.040;2024-02-15T09:07:02;6.70;99.90
77865;DHT22;67061;48.524;9.040;2024-02-15T09:09:30;6.80;99.90
77865;DHT22;67061;48.524;9.040;2024-02-15T09:12:01;6.80;99.90
77865;DHT22;67061;48.524;9.040;2024-02-15T09:14:31;6.90;99.90
77865;DHT22;67061;48.524;9.040;2024-02-15T09:17:00;7.00;99.90
77865;DHT22;67061;48.524;9.040;2024-02-15T09:19:33;7.20;99.90
77865;DHT22;67061;48.524;9.040;2024-02-15T09:22:00;7.40;99.90
77865;DHT22;67061;48.524;9.040;2024-02-15T09:24:27;7.50;99.90
77865;DHT22;67061;48.524;9.040;2024-02-15T09:26:54;7.60;99.90
77865;DHT22;67061;48.524;9.040;2024-02-15T09:29:21;7.80;99.90
77865;DHT22;67061;48.524;9.040;2024-02-15T09:31:50;7.90;99.90
77865;DHT22;67061;48.524;9.040;2024-02-15T09:34:20;8.00;99.90
77865;DHT22;67061;48.524;9.040;2024-02-15T09:36:47;8.10;99.90
77865;DHT22;67061;48.524;9.040;2024-02-15T09:39:13;8.20;99.90
77865;DHT22;67061;48.524;9.040;2024-02-15T09:41:41;8.30;99.90
77865;DHT22;67061;48.524;9.040;2024-02-15T09:44:09;8.40;99.90
77865;DHT22;67061;48.524;9.040;2024-02-15T09:46:43;8.40;99.90
77865;DHT22;67061;48.524;9.040;2024-02-15T09:49:12;8.50;99.90
77865;DHT22;67061;48.524;9.040;2024-02-15T09:51:42;8.50;99.90
77865;DHT22;67061;48.524;9.040;2024-02-15T09:54:09;8.60;99.90
77865;DHT22;67061;48.524;9.040;2024-02-15T09:56:38;8.70;99.90
77865;DHT22;67061;48.524;9.040;2024-02-15T09:59:06;8.80;99.90
77865;DHT22;67061;48.524;9.040;2024-02-15T10:01:34;8.90;99.90
77865;DHT22;67061;48.524;9.040;2024-02-15T10:04:05;9.00;99.90
77865;DHT22;67061;48.524;9.040;2024-02-15T10:06:33;9.00;99.90
77865;DHT22;67061;48.524;9.040;2024-02-15T10:09:26;9.00;99.90
77865;DHT22;67061;48.524;9.040;2024-02-15T10:11:57;9.20;99.90
77865;DHT22;67061;48.524;9.040;2024-02-15T10:14:24;9.20;99.90
77865;DHT22;67061;48.524;9.040;2024-02-15T10:16:54;9.40;99.90
77865;DHT22;67061;48.524;9.040;2024-02-15T10:19:22;9.50;99.90
77865;DHT22;67061;48.524;9.040;2024-02-15T10:21:51;9.60;99.90
77865;DHT22;67061;48.524;9.040;2024-02-15T10:24:21;9.70;99.90
77865;DHT22;67061;48.524;9.040;2024-02-15T10:26:51;9.80;99.90
77865;DHT22;67061;48.524;9.040;2024-02-15T10:29:19;10.00;99.90
77865;DHT22;67061;48.524;9.040;2024-02-15T10:31:54;10.20;99.90
77865;DHT22;67061;48.524;9.040;2024-02-15T10:34:22;10.30;99.90
77865;DHT22;67061;48.524;9.040;2024-02-15T10:36:51;10.30;99.90
77865;DHT22;67061;48.524;9.040;2024-02-15T10:39:19;10.50;99.90
77865;DHT22;67061;48.524;9.040;2024-02-15T10:41:47;10.60;99.90
77865;DHT22;67061;48.524;9.040;2024-02-15T10:44:18;10.70;98.70
77865;DHT22;67061;48.524;9.040;2024-02-15T10:46:46;10.80;99.00
77865;DHT22;67061;48.524;9.040;2024-02-15T10:49:20;10.80;98.80
77865;DHT22;67061;48.524;9.040;2024-02-15T10:51:50;10.90;98.70
77865;DHT22;67061;48.524;9.040;2024-02-15T10:54:30;11.00;98.10
77865;DHT22;67061;48.524;9.040;2024-02-15T10:57:04;11.10;97.00
77865;DHT22;67061;48.524;9.040;2024-02-15T10:59:34;11.30;96.10
77865;DHT22;67061;48.524;9.040;2024-02-15T11:02:15;11.50;93.70
77865;DHT22;67061;48.524;9.040;2024-02-15T11:04:48;11.70;93.20
77865;DHT22;67061;48.524;9.040;2024-02-15T11:07:20;11.90;92.70
77865;DHT22;67061;48.524;9.040;2024-02-15T11:09:47;11.90;92.50
77865;DHT22;67061;48.524;9.040;2024-02-15T11:12:14;12.00;92.00
77865;DHT22;67061;48.524;9.040;2024-02-15T11:14:44;12.20;91.40
77865;DHT22;67061;48.524;9.040;2024-02-15T11:17:11;12.50;90.10
77865;DHT22;67061;48.524;9.040;2024-02-15T11:19:58;12.60;89.10
77865;DHT22;67061;48.524;9.040;2024-02-15T11:22:25;12.80;88.60
77865;DHT22;67061;48.524;9.040;2024-02-15T11:24:53;12.90;88.10
77865;DHT22;67061;48.524;9.040;2024-02-15T11:27:26;13.00;88.00
77865;DHT22;67061;48.524;9.040;2024-02-15T11:29:56;13.20;86.40
77865;DHT22;67061;48.524;9.040;2024-02-15T11:32:38;13.30;86.30
77865;DHT22;67061;48.524;9.040;2024-02-15T11:35:06;13.50;86.10
77865;DHT22;67061;48.524;9.040;2024-02-15T11:37:58;13.60;85.00
77865;DHT22;67061;48.524;9.040;2024-02-15T11:40:29;13.90;82.50
77865;DHT22;67061;48.524;9.040;2024-02-15T11:43:45;14.10;81.80
77865;DHT22;67061;48.524;9.040;2024-02-15T11:46:17;14.20;81.70
77865;DHT22;67061;48.524;9.040;2024-02-15T11:48:44;14.40;78.70
77865;DHT22;67061;48.524;9.040;2024-02-15T11:51:25;14.60;78.60
77865;DHT22;67061;48.524;9.040;2024-02-15T11:54:03;14.70;76.90
77865;DHT22;67061;48.524;9.040;2024-02-15T11:56:49;14.70;77.10
77865;DHT22;67061;48.524;9.040;2024-02-15T11:59:31;14.80;76.30
77865;DHT22;67061;48.524;9.040;2024-02-15T12:02:10;15.10;75.30
77865;DHT22;67061;48.524;9.040;2024-02-15T12:04:54;15.50;73.90
77865;DHT22;67061;48.524;9.040;2024-02-15T12:07:39;16.10;71.60
77865;DHT22;67061;48.524;9.040;2024-02-15T12:10:23;16.70;68.70
77865;DHT22;67061;48.524;9.040;2024-02-15T12:13:07;16.80;69.00
77865;DHT22;67061;48.524;9.040;2024-02-15T12:15:58;16.80;67.60
77865;DHT22;67061;48.524;9.040;2024-02-15T12:18:44;17.20;66.60
77865;DHT22;67061;48.524;9.040;2024-02-15T12:21:16;17.20;65.60
77865;DHT22;67061;48.524;9.040;2024-02-15T12:23:43;17.50;65.40
77865;DHT22;67061;48.524;9.040;2024-02-15T12:26:11;17.80;66.50
77865;DHT22;67061;48.524;9.040;2024-02-15T12:28:40;18.00;64.80
77865;DHT22;67061;48.524;9.040;2024-02-15T12:31:09;18.00;64.90
77865;DHT22;67061;48.524;9.040;2024-02-15T12:33:39;17.60;64.30
77865;DHT22;67061;48.524;9.040;2024-02-15T12:36:08;17.50;64.60
77865;DHT22;67061;48.524;9.040;2024-02-15T12:38:35;17.60;65.60
77865;DHT22;67061;48.524;9.040;2024-02-15T12:41:04;17.50;64.20
77865;DHT22;67061;48.524;9.040;2024-02-15T12:43:43;17.20;63.90
77865;DHT22;67061;48.524;9.040;2024-02-15T12:46:10;17.40;65.30
77865;DHT22;67061;48.524;9.040;2024-02-15T12:48:38;16.90;64.70
77865;DHT22;67061;48.524;9.040;2024-02-15T12:51:14;16.90;64.80
77865;DHT22;67061;48.524;9.040;2024-02-15T12:53:42;16.70;65.00
77865;DHT22;67061;48.524;9.040;2024-02-15T12:56:09;16.40;66.40
77865;DHT22;67061;48.524;9.040;2024-02-15T12:58:36;16.40;66.00
77865;DHT22;67061;48.524;9.040;2024-02-15T13:01:05;16.40;66.40
77865;DHT22;67061;48.524;9.040;2024-02-15T13:03:32;16.80;66.70
77865;DHT22;67061;48.524;9.040;2024-02-15T13:05:59;16.90;64.20
77865;DHT22;67061;48.524;9.040;2024-02-15T13:08:27;17.00;63.40
77865;DHT22;67061;48.524;9.040;2024-02-15T13:10:54;17.20;63.90
77865;DHT22;67061;48.524;9.040;2024-02-15T13:13:22;17.20;63.40
77865;DHT22;67061;48.524;9.040;2024-02-15T13:15:48;17.40;63.40
77865;DHT22;67061;48.524;9.040;2024-02-15T13:18:17;17.60;63.50
77865;DHT22;67061;48.524;9.040;2024-02-15T13:20:44;17.60;62.50
77865;DHT22;67061;48.524;9.040;2024-02-15T13:23:15;17.20;63.60
77865;DHT22;67061;48.524;9.040;2024-02-15T13:25:49;17.20;64.20
77865;DHT22;67061;48.524;9.040;2024-02-15T13:28:17;17.20;63.20
77865;DHT22;67061;48.524;9.040;2024-02-15T13:30:44;16.80;63.50
77865;DHT22;67061;48.524;9.040;2024-02-15T13:33:11;16.70;64.50
77865;DHT22;67061;48.524;9.040;2024-02-15T13:35:39;16.70;64.60
77865;DHT22;67061;48.524;9.040;2024-02-15T13:38:06;16.70;65.30
77865;DHT22;67061;48.524;9.040;2024-02-15T13:40:39;16.70;65.70
77865;DHT22;67061;48.524;9.040;2024-02-15T13:43:08;16.50;66.20
77865;DHT22;67061;48.524;9.040;2024-02-15T13:45:39;16.50;65.70
77865;DHT22;67061;48.524;9.040;2024-02-15T13:48:07;16.40;67.30
77865;DHT22;67061;48.524;9.040;2024-02-15T13:50:34;16.20;66.90
77865;DHT22;67061;48.524;9.040;2024-02-15T13:53:03;16.10;68.10
77865;DHT22;67061;48.524;9.040;2024-02-15T13:55:30;16.10;68.80
77865;DHT22;67061;48.524;9.040;2024-02-15T13:57:58;16.10;68.00
77865;DHT22;67061;48.524;9.040;2024-02-15T14:00:27;16.00;69.40
77865;DHT22;67061;48.524;9.040;2024-02-15T14:03:00;16.00;70.10
77865;DHT22;67061;48.524;9.040;2024-02-15T14:05:28;16.10;69.90
77865;DHT22;67061;48.524;9.040;2024-02-15T14:07:56;16.00;68.70
77865;DHT22;67061;48.524;9.040;2024-02-15T14:10:24;16.10;68.70
77865;DHT22;67061;48.524;9.040;2024-02-15T14:12:53;16.10;69.00
77865;DHT22;67061;48.524;9.040;2024-02-15T14:15:24;16.00;69.80
77865;DHT22;67061;48.524;9.040;2024-02-15T14:17:54;16.00;70.00
77865;DHT22;67061;48.524;9.040;2024-02-15T14:20:22;16.00;69.50
77865;DHT22;67061;48.524;9.040;2024-02-15T14:22:50;16.00;70.10
77865;DHT22;67061;48.524;9.040;2024-02-15T14:25:21;16.10;70.80
77865;DHT22;67061;48.524;9.040;2024-02-15T14:27:48;16.10;69.80
77865;DHT22;67061;48.524;9.040;2024-02-15T14:30:15;16.10;69.70
77865;DHT22;67061;48.524;9.040;2024-02-15T14:33:01;16.00;70.00
77865;DHT22;67061;48.524;9.040;2024-02-15T14:35:33;16.00;69.90
77865;DHT22;67061;48.524;9.040;2024-02-15T14:38:02;16.00;69.50
77865;DHT22;67061;48.524;9.040;2024-02-15T14:40:33;15.90;69.80
77865;DHT22;67061;48.524;9.040;2024-02-15T14:43:00;15.80;70.40
77865;DHT22;67061;48.524;9.040;2024-02-15T14:45:27;15.80;70.40
77865;DHT22;67061;48.524;9.040;2024-02-15T14:47:54;15.80;69.90
77865;DHT22;67061;48.524;9.040;2024-02-15T14:50:23;15.80;70.10
77865;DHT22;67061;48.524;9.040;2024-02-15T14:52:51;15.70;69.80
77865;DHT22;67061;48.524;9.040;2024-02-15T14:55:18;15.60;71.00
77865;DHT22;67061;48.524;9.040;2024-02-15T14:57:46;15.60;70.40
77865;DHT22;67061;48.524;9.040;2024-02-15T15:00:13;15.60;70.20
77865;DHT22;67061;48.524;9.040;2024-02-15T15:02:43;15.50;70.20
77865;DHT22;67061;48.524;9.040;2024-02-15T15:05:13;15.50;70.50
77865;DHT22;67061;48.524;9.040;2024-02-15T15:08:00;15.40;71.00
77865;DHT22;67061;48.524;9.040;2024-02-15T15:10:45;15.40;71.20
77865;DHT22;67061;48.524;9.040;2024-02-15T15:13:30;15.30;72.00
77865;DHT22;67061;48.524;9.040;2024-02-15T15:15:57;15.30;71.90
77865;DHT22;67061;48.524;9.040;2024-02-15T15:18:24;15.30;71.90
77865;DHT22;67061;48.524;9.040;2024-02-15T15:20:51;15.20;72.20
77865;DHT22;67061;48.524;9.040;2024-02-15T15:23:20;15.10;72.80
77865;DHT22;67061;48.524;9.040;2024-02-15T15:25:48;15.00;73.50
77865;DHT22;67061;48.524;9.040;2024-02-15T15:28:15;15.00;74.10
77865;DHT22;67061;48.524;9.040;2024-02-15T15:30:42;14.90;74.20
77865;DHT22;67061;48.524;9.040;2024-02-15T15:33:14;14.90;74.40
77865;DHT22;67061;48.524;9.040;2024-02-15T15:35:41;14.80;74.60
77865;DHT22;67061;48.524;9.040;2024-02-15T15:38:08;14.70;74.90
77865;DHT22;67061;48.524;9.040;2024-02-15T15:40:37;14.70;75.30
77865;DHT22;67061;48.524;9.040;2024-02-15T15:43:04;14.60;75.70
77865;DHT22;67061;48.524;9.040;2024-02-15T15:45:32;14.50;76.70
77865;DHT22;67061;48.524;9.040;2024-02-15T15:47:59;14.40;78.00
77865;DHT22;67061;48.524;9.040;2024-02-15T15:50:27;14.30;78.00
77865;DHT22;67061;48.524;9.040;2024-02-15T15:53:01;14.20;78.40
77865;DHT22;67061;48.524;9.040;2024-02-15T15:55:27;14.10;79.40